Time;durP1;ratioP1;P1;durP2;ratioP2;P2;SDS_P1;SDS_P2;PMS_P1;PMS_P2;Temp;Humidity;BMP_temperature;BMP_pressure;BME280_temperature;BME280_humidity;BME280_pressure;Samples;Min_cycle;Max_cycle;Signal;HPM_P1;HPM_P2
2021/08/26 00:00:57;;;;;;;5.97;2.90;;;;;;;;;;4938336;29;20075;-81
2021/08/26 00:06:14;;;;;;;5.65;2.85;;;;;;;;;;4955501;29;20038;-81
2021/08/26 00:08:40;;;;;;;5.32;2.72;;;;;;;;;;4937732;29;20388;-81
2021/08/26 00:11:07;;;;;;;5.97;2.38;;;;;;;;;;4955805;29;20050;-82
2021/08/26 00:13:34;;;;;;;5.55;2.90;;;;;;;;;;4955067;29;20026;-82
2021/08/26 00:16:00;;;;;;;6.28;2.58;;;;;;;;;;4938126;29;20035;-81
2021/08/26 00:18:26;;;;;;;4.97;2.35;;;;;;;;;;4938230;29;20059;-82
2021/08/26 00:20:53;;;;;;;6.93;3.20;;;;;;;;;;4954939;29;20031;-82
2021/08/26 00:23:22;;;;;;;6.00;2.95;;;;;;;;;;4937774;29;20122;-80
2021/08/26 00:25:49;;;;;;;6.45;2.80;;;;;;;;;;4938006;29;20397;-81
2021/08/26 00:28:15;;;;;;;5.43;2.60;;;;;;;;;;4937802;29;20024;-80
2021/08/26 00:30:41;;;;;;;8.35;2.80;;;;;;;;;;4954957;29;20034;-80
2021/08/26 00:33:08;;;;;;;6.30;2.50;;;;;;;;;;4937944;29;20035;-81
2021/08/26 00:35:34;;;;;;;6.50;2.75;;;;;;;;;;4958782;29;20098;-91
2021/08/26 00:38:01;;;;;;;8.70;2.60;;;;;;;;;;4958661;29;20122;-81
2021/08/26 00:40:27;;;;;;;4.78;2.13;;;;;;;;;;4958495;29;20551;-81
2021/08/26 00:42:53;;;;;;;9.65;3.13;;;;;;;;;;4958488;29;20094;-81
2021/08/26 00:45:20;;;;;;;6.55;2.67;;;;;;;;;;4958868;29;20112;-91
2021/08/26 00:47:47;;;;;;;6.03;2.60;;;;;;;;;;4941375;29;20028;-81
2021/08/26 00:50:14;;;;;;;7.53;2.72;;;;;;;;;;4941066;29;20031;-81
2021/08/26 00:52:41;;;;;;;6.05;2.70;;;;;;;;;;4958238;29;20366;-81
2021/08/26 00:55:08;;;;;;;6.00;2.92;;;;;;;;;;4958321;29;20019;-88
2021/08/26 00:57:34;;;;;;;6.63;2.90;;;;;;;;;;4940953;29;20122;-81
2021/08/26 01:00:03;;;;;;;6.18;2.58;;;;;;;;;;4958108;29;20059;-80
2021/08/26 01:02:34;;;;;;;4.18;2.33;;;;;;;;;;4940983;29;20042;-88
2021/08/26 01:05:07;;;;;;;7.65;2.88;;;;;;;;;;4940969;29;20130;-81
2021/08/26 01:07:34;;;;;;;;;;;;;;;;;;4958335;29;20039;-80
2021/08/26 01:10:07;;;;;;;4.70;2.08;;;;;;;;;;4940505;29;19977;-81
2021/08/26 01:12:34;;;;;;;6.60;2.60;;;;;;;;;;4940692;29;20035;-82
2021/08/26 01:15:01;;;;;;;9.77;2.47;;;;;;;;;;4940696;29;20039;-81
2021/08/26 01:17:31;;;;;;;6.88;2.78;;;;;;;;;;4941126;29;20529;-82
2021/08/26 01:19:58;;;;;;;7.47;2.58;;;;;;;;;;4940717;29;20085;-82
2021/08/26 01:22:25;;;;;;;6.13;2.83;;;;;;;;;;4958095;29;20031;-88
2021/08/26 01:25:11;;;;;;;5.35;2.33;;;;;;;;;;4940834;29;20036;-81
2021/08/26 01:27:40;;;;;;;8.10;2.50;;;;;;;;;;4940376;29;20082;-81
2021/08/26 01:30:07;;;;;;;5.97;2.83;;;;;;;;;;4940487;29;20027;-87
2021/08/26 01:32:33;;;;;;;5.25;2.22;;;;;;;;;;4940352;29;20110;-82
2021/08/26 01:35:00;;;;;;;5.60;2.67;;;;;;;;;;4940345;29;20107;-81
2021/08/26 01:37:26;;;;;;;6.20;2.95;;;;;;;;;;4957354;29;20035;-88
2021/08/26 01:39:54;;;;;;;5.65;2.28;;;;;;;;;;4940244;29;20038;-81
2021/08/26 01:42:26;;;;;;;5.70;2.55;;;;;;;;;;4939976;29;20118;-84
2021/08/26 01:44:53;;;;;;;8.57;2.88;;;;;;;;;;4940015;29;20535;-81
2021/08/26 01:47:21;;;;;;;4.50;2.40;;;;;;;;;;4940129;29;20027;-81
2021/08/26 01:49:48;;;;;;;6.05;2.53;;;;;;;;;;4957741;29;20035;-80
2021/08/26 01:52:18;;;;;;;5.75;2.85;;;;;;;;;;4957800;29;20024;-80
2021/08/26 01:55:04;;;;;;;7.82;2.60;;;;;;;;;;4939960;29;20118;-81
2021/08/26 01:57:31;;;;;;;10.57;2.58;;;;;;;;;;4957707;29;20368;-80
2021/08/26 02:00:04;;;;;;;5.80;2.45;;;;;;;;;;4939804;29;20436;-81
2021/08/26 02:02:30;;;;;;;11.85;3.05;;;;;;;;;;4940877;29;20031;-81
2021/08/26 02:04:56;;;;;;;7.47;3.20;;;;;;;;;;4939692;29;20043;-81
2021/08/26 02:07:23;;;;;;;6.63;2.95;;;;;;;;;;4939790;29;20079;-80
2021/08/26 02:09:49;;;;;;;5.32;2.88;;;;;;;;;;4939403;29;20051;-81
2021/08/26 02:12:15;;;;;;;5.03;2.63;;;;;;;;;;4940014;29;20122;-80
2021/08/26 02:14:42;;;;;;;6.50;3.30;;;;;;;;;;4939589;29;20118;-81
2021/08/26 02:17:08;;;;;;;5.90;3.15;;;;;;;;;;4956700;29;20442;-80
2021/08/26 02:19:34;;;;;;;6.18;2.80;;;;;;;;;;4939592;29;20059;-79
2021/08/26 02:22:01;;;;;;;5.63;2.85;;;;;;;;;;4956630;29;20023;-81
2021/08/26 02:24:27;;;;;;;5.00;2.50;;;;;;;;;;4956576;29;20038;-80
2021/08/26 02:26:53;;;;;;;11.30;3.28;;;;;;;;;;4939305;29;20039;-81
2021/08/26 02:29:20;;;;;;;5.95;2.67;;;;;;;;;;4956553;29;20038;-81
2021/08/26 02:31:46;;;;;;;11.23;3.25;;;;;;;;;;4939282;29;20023;-83
2021/08/26 02:34:13;;;;;;;10.20;3.17;;;;;;;;;;4939366;29;20142;-81
2021/08/26 02:36:39;;;;;;;6.68;2.72;;;;;;;;;;4939632;29;20396;-80
2021/08/26 02:39:07;;;;;;;5.72;2.88;;;;;;;;;;4939221;29;20034;-81
2021/08/26 02:41:34;;;;;;;6.35;2.97;;;;;;;;;;4956957;29;20027;-81
2021/08/26 02:44:01;;;;;;;5.28;2.70;;;;;;;;;;4956189;29;20055;-82
2021/08/26 02:46:27;;;;;;;5.30;3.25;;;;;;;;;;4956380;29;20071;-81
2021/08/26 02:48:53;;;;;;;8.77;3.15;;;;;;;;;;4956306;29;20019;-81
2021/08/26 02:51:20;;;;;;;5.75;2.63;;;;;;;;;;4956315;29;20073;-80
2021/08/26 02:53:46;;;;;;;7.30;3.58;;;;;;;;;;4956585;29;20027;-84
2021/08/26 02:56:12;;;;;;;9.18;3.17;;;;;;;;;;4938608;29;20480;-78
2021/08/26 02:58:38;;;;;;;8.07;3.40;;;;;;;;;;4938805;29;20030;-88
2021/08/26 03:01:05;;;;;;;6.80;3.35;;;;;;;;;;4955958;29;20035;-81
2021/08/26 03:03:31;;;;;;;6.63;3.08;;;;;;;;;;4956395;29;20065;-80
2021/08/26 03:05:57;;;;;;;10.05;3.28;;;;;;;;;;4955775;29;20031;-80
2021/08/26 03:08:23;;;;;;;5.00;2.65;;;;;;;;;;4955808;29;20030;-80
2021/08/26 03:10:49;;;;;;;6.13;3.20;;;;;;;;;;4955810;29;20047;-81
2021/08/26 03:13:16;;;;;;;9.70;3.40;;;;;;;;;;4938562;29;20532;-79
2021/08/26 03:15:42;;;;;;;7.60;3.58;;;;;;;;;;4938665;29;20030;-79
2021/08/26 03:18:08;;;;;;;9.00;3.20;;;;;;;;;;4938497;29;20023;-78
2021/08/26 03:20:34;;;;;;;6.20;3.15;;;;;;;;;;4938521;29;20038;-80
2021/08/26 03:23:00;;;;;;;12.60;4.10;;;;;;;;;;4938465;29;20122;-80
2021/08/26 03:25:27;;;;;;;7.93;3.55;;;;;;;;;;4938407;29;20144;-79
2021/08/26 03:27:54;;;;;;;9.60;3.90;;;;;;;;;;4955574;29;20030;-78
2021/08/26 03:30:20;;;;;;;10.80;4.03;;;;;;;;;;4938471;29;20074;-81
2021/08/26 03:32:46;;;;;;;10.32;3.67;;;;;;;;;;4939490;29;20043;-79
2021/08/26 03:35:12;;;;;;;11.18;4.65;;;;;;;;;;4956044;29;20493;-79
2021/08/26 03:37:38;;;;;;;12.43;5.40;;;;;;;;;;4955617;29;20105;-79
2021/08/26 03:40:05;;;;;;;10.90;4.28;;;;;;;;;;4955901;29;20031;-78
2021/08/26 03:42:31;;;;;;;10.48;4.15;;;;;;;;;;4938257;29;20023;-80
2021/08/26 03:44:57;;;;;;;14.10;5.32;;;;;;;;;;4955387;29;20043;-79
2021/08/26 03:47:24;;;;;;;16.80;5.13;;;;;;;;;;4938075;29;20118;-79
2021/08/26 03:49:50;;;;;;;12.00;5.47;;;;;;;;;;4955365;29;20039;-81
2021/08/26 03:52:16;;;;;;;14.50;5.97;;;;;;;;;;4938040;29;20389;-80
2021/08/26 03:54:43;;;;;;;12.80;5.35;;;;;;;;;;4938163;29;20019;-80
2021/08/26 03:57:09;;;;;;;12.23;5.25;;;;;;;;;;4938221;29;20039;-89
2021/08/26 03:59:35;;;;;;;9.98;5.00;;;;;;;;;;4938036;29;20484;-82
2021/08/26 04:02:02;;;;;;;10.57;5.00;;;;;;;;;;4955236;29;20087;-82
2021/08/26 04:04:28;;;;;;;14.95;5.50;;;;;;;;;;4955168;29;20082;-82
2021/08/26 04:06:54;;;;;;;13.13;5.47;;;;;;;;;;4955745;29;20087;-81
2021/08/26 04:09:20;;;;;;;14.13;6.38;;;;;;;;;;4957631;28;20090;-80
2021/08/26 04:11:47;;;;;;;12.30;5.45;;;;;;;;;;4941794;29;20114;-82
2021/08/26 04:14:13;;;;;;;13.48;6.20;;;;;;;;;;4959187;29;20063;-81
2021/08/26 04:16:40;;;;;;;12.48;5.55;;;;;;;;;;4941808;29;20508;-82
2021/08/26 04:19:06;;;;;;;13.60;6.55;;;;;;;;;;4942059;29;20365;-82
2021/08/26 04:21:33;;;;;;;12.80;6.38;;;;;;;;;;4958861;29;20031;-82
2021/08/26 04:23:59;;;;;;;12.93;5.68;;;;;;;;;;4958810;29;20028;-82
2021/08/26 04:26:26;;;;;;;14.13;6.07;;;;;;;;;;4958806;29;20068;-81
2021/08/26 04:28:52;;;;;;;13.93;6.75;;;;;;;;;;4941561;29;20027;-82
2021/08/26 04:31:18;;;;;;;12.73;6.07;;;;;;;;;;4941868;29;20031;-82
2021/08/26 04:33:45;;;;;;;16.08;6.00;;;;;;;;;;4941451;29;20027;-81
2021/08/26 04:36:11;;;;;;;13.27;5.60;;;;;;;;;;4958651;29;20481;-81
2021/08/26 04:38:37;;;;;;;17.80;6.22;;;;;;;;;;4941764;29;20027;-81
2021/08/26 04:41:04;;;;;;;12.73;6.18;;;;;;;;;;4941255;29;20027;-81
2021/08/26 04:43:30;;;;;;;16.00;6.60;;;;;;;;;;4958421;29;20042;-81
2021/08/26 04:45:57;;;;;;;16.88;6.40;;;;;;;;;;4958988;29;20065;-81
2021/08/26 04:48:23;;;;;;;16.50;6.63;;;;;;;;;;4941711;29;20376;-81
2021/08/26 04:50:49;;;;;;;16.48;7.32;;;;;;;;;;4941347;29;20031;-82
2021/08/26 04:53:16;;;;;;;13.65;6.47;;;;;;;;;;4958537;29;20030;-82
2021/08/26 04:55:42;;;;;;;13.52;6.53;;;;;;;;;;4941038;29;20031;-80
2021/08/26 04:58:08;;;;;;;14.80;6.93;;;;;;;;;;4958336;29;20059;-86
2021/08/26 05:00:35;;;;;;;16.42;6.75;;;;;;;;;;4940754;29;20027;-80
2021/08/26 05:03:03;;;;;;;12.80;7.03;;;;;;;;;;4941084;29;20023;-81
2021/08/26 05:05:29;;;;;;;15.43;7.22;;;;;;;;;;4940843;29;20035;-91
2021/08/26 05:07:56;;;;;;;17.75;7.50;;;;;;;;;;4958001;29;20024;-80
2021/08/26 05:10:22;;;;;;;15.50;7.25;;;;;;;;;;4940669;29;20079;-81
2021/08/26 05:12:48;;;;;;;13.73;6.32;;;;;;;;;;4957925;29;20031;-81
2021/08/26 05:15:15;;;;;;;15.40;7.70;;;;;;;;;;4957862;29;20047;-87
2021/08/26 05:17:41;;;;;;;13.27;7.30;;;;;;;;;;4942270;29;20086;-79
2021/08/26 05:20:07;;;;;;;14.32;6.22;;;;;;;;;;4941542;29;20129;-85
2021/08/26 05:22:33;;;;;;;14.02;7.32;;;;;;;;;;4941690;29;20091;-86
2021/08/26 05:24:59;;;;;;;12.73;6.55;;;;;;;;;;4958093;29;20070;-80
2021/08/26 05:27:25;;;;;;;15.00;6.72;;;;;;;;;;4940361;29;20027;-88
2021/08/26 05:29:52;;;;;;;14.18;6.20;;;;;;;;;;4957738;29;20023;-88
2021/08/26 05:32:18;;;;;;;13.98;6.88;;;;;;;;;;4940384;29;20023;-87
2021/08/26 05:34:45;;;;;;;14.55;7.25;;;;;;;;;;4940718;29;20051;-89
2021/08/26 05:37:11;;;;;;;14.27;7.50;;;;;;;;;;4937166;29;20480;-84
2021/08/26 05:39:38;;;;;;;14.60;6.97;;;;;;;;;;4956058;29;20058;-87
2021/08/26 05:42:04;;;;;;;16.67;7.65;;;;;;;;;;4925943;29;20034;-87
2021/08/26 05:44:30;;;;;;;15.73;7.07;;;;;;;;;;4938942;29;20038;-87
2021/08/26 05:46:56;;;;;;;15.45;6.90;;;;;;;;;;4957940;29;20024;-86
2021/08/26 05:49:22;;;;;;;16.48;6.97;;;;;;;;;;4956912;29;20030;-89
2021/08/26 05:51:48;;;;;;;16.10;6.78;;;;;;;;;;4956782;29;20585;-90
2021/08/26 05:54:15;;;;;;;15.45;6.95;;;;;;;;;;4940913;29;20027;-85
2021/08/26 05:56:41;;;;;;;16.98;7.88;;;;;;;;;;4957443;29;20110;-89
2021/08/26 05:59:07;;;;;;;14.18;7.85;;;;;;;;;;4940566;29;20031;-88
2021/08/26 06:01:33;;;;;;;14.90;8.00;;;;;;;;;;4940211;29;20487;-85
2021/08/26 06:03:59;;;;;;;15.55;8.07;;;;;;;;;;4939840;29;20039;-88
2021/08/26 06:06:25;;;;;;;16.38;7.78;;;;;;;;;;4940164;29;20035;-86
2021/08/26 06:08:51;;;;;;;16.33;7.50;;;;;;;;;;4939798;29;20059;-88
2021/08/26 06:11:17;;;;;;;18.33;7.90;;;;;;;;;;4939771;29;20106;-89
2021/08/26 06:13:43;;;;;;;16.98;7.72;;;;;;;;;;4939184;29;20027;-85
2021/08/26 06:16:10;;;;;;;13.30;7.43;;;;;;;;;;4939051;29;20038;-80
2021/08/26 06:18:36;;;;;;;13.70;7.82;;;;;;;;;;4939139;29;20027;-81
2021/08/26 06:21:02;;;;;;;20.60;10.90;;;;;;;;;;4938998;29;20067;-85
2021/08/26 06:23:28;;;;;;;15.35;7.93;;;;;;;;;;4956381;29;20462;-80
2021/08/26 06:25:55;;;;;;;16.48;7.78;;;;;;;;;;4956342;29;20110;-83
2021/08/26 06:28:21;;;;;;;14.35;8.02;;;;;;;;;;4938953;29;20038;-77
2021/08/26 06:30:47;;;;;;;16.02;7.97;;;;;;;;;;4938494;29;20031;-77
2021/08/26 06:33:13;;;;;;;12.27;6.60;;;;;;;;;;4920827;29;20401;-80
2021/08/26 06:35:39;;;;;;;18.33;8.00;;;;;;;;;;4920129;29;20494;-80
2021/08/26 06:38:07;;;;;;;15.60;7.20;;;;;;;;;;4920013;29;20067;-83
2021/08/26 06:40:34;;;;;;;18.83;8.25;;;;;;;;;;4919927;29;20027;-78
2021/08/26 06:43:00;;;;;;;20.77;8.40;;;;;;;;;;4919822;29;20038;-77
2021/08/26 06:45:26;;;;;;;15.65;8.77;;;;;;;;;;4919951;29;20098;-78
2021/08/26 06:47:52;;;;;;;18.13;8.15;;;;;;;;;;4919938;29;20024;-79
2021/08/26 06:50:18;;;;;;;16.92;8.30;;;;;;;;;;4919710;29;20039;-79
2021/08/26 06:52:44;;;;;;;16.50;8.73;;;;;;;;;;4919814;29;20493;-82
2021/08/26 06:55:11;;;;;;;18.60;8.25;;;;;;;;;;4920003;29;20086;-78
2021/08/26 06:57:37;;;;;;;14.23;6.70;;;;;;;;;;4919816;29;20043;-78
2021/08/26 07:00:04;;;;;;;15.13;7.63;;;;;;;;;;4951806;28;20031;-85
2021/08/26 07:02:30;;;;;;;14.07;7.25;;;;;;;;;;4938471;29;20114;-84
2021/08/26 07:04:57;;;;;;;14.27;7.03;;;;;;;;;;4938430;29;20477;-84
2021/08/26 07:07:23;;;;;;;14.75;7.03;;;;;;;;;;4938478;29;20023;-83
2021/08/26 07:09:49;;;;;;;14.73;6.90;;;;;;;;;;4955656;29;20043;-84
2021/08/26 07:12:15;;;;;;;14.13;7.20;;;;;;;;;;4938436;29;20051;-79
2021/08/26 07:14:41;;;;;;;13.57;6.80;;;;;;;;;;4956101;29;20023;-79
2021/08/26 07:17:07;;;;;;;15.18;7.03;;;;;;;;;;4955337;29;20058;-81
2021/08/26 07:19:33;;;;;;;14.30;7.20;;;;;;;;;;4937880;29;20031;-87
2021/08/26 07:21:59;;;;;;;11.80;6.65;;;;;;;;;;4938671;29;20034;-81
2021/08/26 07:24:26;;;;;;;15.93;7.85;;;;;;;;;;4938231;29;20492;-82
2021/08/26 07:26:52;;;;;;;13.63;7.25;;;;;;;;;;4938124;29;20070;-80
2021/08/26 07:29:18;;;;;;;14.85;7.43;;;;;;;;;;4938242;29;20059;-85
2021/08/26 07:31:45;;;;;;;15.02;7.47;;;;;;;;;;4955540;29;20027;-85
2021/08/26 07:34:12;;;;;;;13.02;7.43;;;;;;;;;;4954189;29;20043;-82
2021/08/26 07:36:38;;;;;;;12.30;6.68;;;;;;;;;;4954116;29;20073;-78
2021/08/26 07:39:04;;;;;;;12.45;6.68;;;;;;;;;;4954407;29;20400;-85
2021/08/26 07:41:31;;;;;;;14.60;6.28;;;;;;;;;;4954186;29;20031;-85
2021/08/26 07:43:57;;;;;;;12.55;6.55;;;;;;;;;;4968873;28;20039;-82
2021/08/26 07:46:24;;;;;;;14.48;6.88;;;;;;;;;;4957633;28;20041;-80
2021/08/26 07:48:50;;;;;;;15.02;6.88;;;;;;;;;;4974961;28;20031;-83
2021/08/26 07:51:16;;;;;;;14.30;6.85;;;;;;;;;;4957315;28;20034;-86
2021/08/26 07:53:42;;;;;;;17.80;7.53;;;;;;;;;;4957283;28;20031;-84
2021/08/26 07:56:08;;;;;;;15.70;6.57;;;;;;;;;;4957419;28;20034;-86
2021/08/26 07:58:34;;;;;;;13.68;6.18;;;;;;;;;;4974516;28;20030;-78
2021/08/26 08:01:01;;;;;;;11.75;6.78;;;;;;;;;;4974922;28;20034;-86
2021/08/26 08:03:27;;;;;;;15.63;6.55;;;;;;;;;;4956975;28;20046;-85
2021/08/26 08:05:54;;;;;;;16.42;7.05;;;;;;;;;;4957375;28;20038;-85
2021/08/26 08:08:20;;;;;;;14.50;6.70;;;;;;;;;;4957237;28;20086;-80
2021/08/26 08:10:46;;;;;;;15.30;7.88;;;;;;;;;;4956910;28;20492;-81
2021/08/26 08:13:12;;;;;;;14.15;6.50;;;;;;;;;;4957017;28;20030;-84
2021/08/26 08:15:38;;;;;;;12.73;6.70;;;;;;;;;;4956755;28;20027;-85
2021/08/26 08:18:05;;;;;;;16.75;7.18;;;;;;;;;;4957243;28;20079;-80
2021/08/26 08:20:31;;;;;;;13.63;7.03;;;;;;;;;;4956880;28;20023;-85
2021/08/26 08:22:57;;;;;;;13.77;6.93;;;;;;;;;;4956829;28;20023;-84
2021/08/26 08:25:23;;;;;;;15.10;7.20;;;;;;;;;;4956836;28;20407;-85
2021/08/26 08:27:49;;;;;;;14.90;6.50;;;;;;;;;;4956863;28;20455;-84
2021/08/26 08:30:15;;;;;;;14.15;7.18;;;;;;;;;;4956791;28;20027;-82
2021/08/26 08:32:41;;;;;;;13.07;7.45;;;;;;;;;;4942795;29;20031;-82
2021/08/26 08:35:08;;;;;;;14.00;6.40;;;;;;;;;;4937637;29;20047;-84
2021/08/26 08:37:34;;;;;;;14.98;7.20;;;;;;;;;;4937640;29;20135;-85
2021/08/26 08:40:00;;;;;;;16.98;7.20;;;;;;;;;;4928424;29;20031;-84
2021/08/26 08:42:31;;;;;;;14.48;6.65;;;;;;;;;;4944954;29;20027;-85
2021/08/26 08:44:57;;;;;;;16.98;7.53;;;;;;;;;;4922923;29;20497;-82
2021/08/26 08:47:24;;;;;;;17.08;7.18;;;;;;;;;;4927677;29;20057;-83
2021/08/26 08:49:50;;;;;;;11.95;7.43;;;;;;;;;;4926145;29;20036;-84
2021/08/26 08:52:18;;;;;;;14.50;6.65;;;;;;;;;;4926590;29;20027;-82
2021/08/26 08:54:44;;;;;;;12.95;6.85;;;;;;;;;;4928516;29;20465;-83
2021/08/26 08:57:12;;;;;;;12.07;6.85;;;;;;;;;;4929452;29;20062;-82
2021/08/26 08:59:39;;;;;;;14.00;6.63;;;;;;;;;;4946570;29;20416;-81
2021/08/26 09:02:05;;;;;;;10.93;6.90;;;;;;;;;;4921934;29;20027;-85
2021/08/26 09:04:31;;;;;;;12.00;7.00;;;;;;;;;;4921417;29;20031;-85
2021/08/26 09:06:57;;;;;;;17.10;7.82;;;;;;;;;;4922160;29;20119;-85
2021/08/26 09:09:23;;;;;;;13.73;7.25;;;;;;;;;;4921468;29;20054;-82
2021/08/26 09:11:54;;;;;;;14.93;7.18;;;;;;;;;;4939746;29;20388;-85
2021/08/26 09:14:23;;;;;;;18.55;7.40;;;;;;;;;;4940456;29;20392;-80
2021/08/26 09:16:51;;;;;;;19.67;7.63;;;;;;;;;;4940621;29;20075;-86
2021/08/26 09:19:23;;;;;;;12.48;6.90;;;;;;;;;;4940558;29;20102;-84
2021/08/26 09:21:50;;;;;;;11.70;7.40;;;;;;;;;;4940429;29;20031;-85
2021/08/26 09:24:16;;;;;;;13.98;6.85;;;;;;;;;;4940288;29;20122;-81
2021/08/26 09:26:46;;;;;;;22.88;7.65;;;;;;;;;;4940294;29;20027;-83
2021/08/26 09:29:12;;;;;;;15.07;7.43;;;;;;;;;;4940533;29;20038;-82
2021/08/26 09:31:38;;;;;;;14.20;7.00;;;;;;;;;;4937652;29;20027;-85
2021/08/26 09:34:06;;;;;;;14.25;7.07;;;;;;;;;;4940670;29;20023;-79
2021/08/26 09:36:33;;;;;;;11.55;6.38;;;;;;;;;;4940459;29;20043;-82
2021/08/26 09:39:13;;;;;;;12.50;6.15;;;;;;;;;;4940111;29;20388;-79
2021/08/26 09:41:48;;;;;;;11.75;6.45;;;;;;;;;;4957294;29;20397;-82
2021/08/26 09:44:15;;;;;;;14.55;6.93;;;;;;;;;;4939916;29;20033;-80
2021/08/26 09:46:42;;;;;;;16.38;6.28;;;;;;;;;;4940054;29;20127;-79
2021/08/26 09:49:10;;;;;;;16.77;6.55;;;;;;;;;;4957177;29;20106;-82
2021/08/26 09:51:36;;;;;;;9.82;5.78;;;;;;;;;;4940222;29;20031;-79
2021/08/26 09:54:03;;;;;;;10.23;5.78;;;;;;;;;;4939842;29;20440;-86
2021/08/26 09:56:39;;;;;;;12.48;6.05;;;;;;;;;;4939766;29;20451;-84
2021/08/26 09:59:06;;;;;;;14.43;6.05;;;;;;;;;;4940148;29;20504;-82
2021/08/26 10:01:36;;;;;;;12.50;6.00;;;;;;;;;;4939986;29;20027;-80
2021/08/26 10:04:02;;;;;;;11.63;5.50;;;;;;;;;;4939707;29;20036;-86
2021/08/26 10:06:28;;;;;;;11.10;5.90;;;;;;;;;;4939483;29;20086;-83
2021/08/26 10:08:54;;;;;;;11.98;6.65;;;;;;;;;;4940852;29;20133;-84
2021/08/26 10:11:21;;;;;;;11.13;5.28;;;;;;;;;;4957273;29;20027;-83
2021/08/26 10:13:48;;;;;;;10.75;5.75;;;;;;;;;;4939231;29;20023;-86
2021/08/26 10:16:14;;;;;;;10.73;5.65;;;;;;;;;;4939701;29;20114;-81
2021/08/26 10:18:41;;;;;;;11.25;5.50;;;;;;;;;;4939398;29;20489;-84
2021/08/26 10:21:09;;;;;;;14.50;6.05;;;;;;;;;;4939499;29;20364;-88
2021/08/26 10:23:39;;;;;;;11.32;6.22;;;;;;;;;;4956559;29;20070;-80
2021/08/26 10:26:07;;;;;;;10.88;5.85;;;;;;;;;;4956759;29;20106;-87
2021/08/26 10:28:35;;;;;;;10.40;5.82;;;;;;;;;;4958401;29;20118;-85
2021/08/26 10:31:21;;;;;;;11.43;5.28;;;;;;;;;;4940382;29;20543;-86
2021/08/26 10:33:47;;;;;;;16.23;6.18;;;;;;;;;;4955599;29;20023;-86
2021/08/26 10:36:15;;;;;;;12.95;5.70;;;;;;;;;;4955503;29;20027;-85
2021/08/26 10:38:41;;;;;;;9.75;4.20;;;;;;;;;;4956621;29;20031;-85
2021/08/26 10:41:19;;;;;;;11.15;4.93;;;;;;;;;;4955252;29;20034;-85
2021/08/26 10:43:46;;;;;;;9.73;5.10;;;;;;;;;;4955594;29;20388;-81
2021/08/26 10:46:13;;;;;;;10.30;5.05;;;;;;;;;;4954657;29;20043;-82
2021/08/26 10:48:39;;;;;;;12.88;4.80;;;;;;;;;;4954912;29;20082;-82
2021/08/26 10:51:17;;;;;;;8.50;4.95;;;;;;;;;;4956065;29;20019;-83
2021/08/26 10:53:52;;;;;;;9.63;4.82;;;;;;;;;;4955148;29;20069;-82
2021/08/26 10:56:25;;;;;;;9.50;4.38;;;;;;;;;;4954881;29;20468;-83
2021/08/26 10:58:52;;;;;;;8.88;4.00;;;;;;;;;;4938979;29;20034;-85
2021/08/26 11:01:35;;;;;;;7.03;3.92;;;;;;;;;;4954584;29;20062;-86
2021/08/26 11:04:03;;;;;;;7.80;3.42;;;;;;;;;;4954806;29;20491;-84
2021/08/26 11:06:29;;;;;;;8.98;4.10;;;;;;;;;;4954707;29;20043;-82
2021/08/26 11:08:59;;;;;;;7.35;3.42;;;;;;;;;;4958690;28;20093;-80
2021/08/26 11:13:52;;;;;;;11.40;3.85;;;;;;;;;;4975257;28;20486;-84
2021/08/26 11:16:24;;;;;;;7.97;3.65;;;;;;;;;;4957434;28;20495;-85
2021/08/26 11:18:54;;;;;;;5.70;3.17;;;;;;;;;;4957179;28;20030;-84
2021/08/26 11:21:39;;;;;;;9.90;3.88;;;;;;;;;;4957820;28;20487;-83
2021/08/26 11:24:05;;;;;;;8.43;3.50;;;;;;;;;;4957664;28;20031;-85
2021/08/26 11:26:46;;;;;;;5.82;2.75;;;;;;;;;;4957721;28;20026;-88
2021/08/26 11:29:18;;;;;;;5.50;2.72;;;;;;;;;;4957531;28;20480;-86
2021/08/26 11:31:45;;;;;;;7.68;2.55;;;;;;;;;;4968195;28;20023;-83
2021/08/26 11:34:13;;;;;;;6.97;3.30;;;;;;;;;;4938233;29;20035;-80
2021/08/26 11:36:39;;;;;;;5.53;2.90;;;;;;;;;;4955370;29;20034;-82
2021/08/26 11:39:05;;;;;;;5.88;3.00;;;;;;;;;;4938412;29;20031;-82
2021/08/26 11:41:31;;;;;;;6.60;3.17;;;;;;;;;;4938448;29;20034;-85
2021/08/26 11:43:58;;;;;;;11.07;2.85;;;;;;;;;;4937984;29;20027;-85
2021/08/26 11:46:24;;;;;;;6.63;3.38;;;;;;;;;;4938136;29;20062;-85
2021/08/26 11:48:51;;;;;;;7.25;2.90;;;;;;;;;;4938376;29;20477;-82
2021/08/26 11:51:22;;;;;;;5.70;3.15;;;;;;;;;;4938218;29;20444;-83
2021/08/26 11:53:48;;;;;;;6.75;3.03;;;;;;;;;;4938027;29;20062;-86
2021/08/26 11:56:14;;;;;;;6.28;2.88;;;;;;;;;;4938148;29;20027;-84
2021/08/26 11:58:40;;;;;;;5.82;3.13;;;;;;;;;;4955835;29;20031;-78
2021/08/26 12:01:07;;;;;;;7.88;3.38;;;;;;;;;;4938406;29;20034;-79
2021/08/26 12:03:33;;;;;;;8.32;3.35;;;;;;;;;;4937878;29;20035;-77
2021/08/26 12:06:08;;;;;;;6.82;3.17;;;;;;;;;;4938019;29;20032;-82
2021/08/26 12:08:34;;;;;;;7.28;3.45;;;;;;;;;;4937798;29;20035;-84
2021/08/26 12:11:00;;;;;;;7.20;3.42;;;;;;;;;;4955376;29;20562;-83
2021/08/26 12:13:29;;;;;;;7.30;3.60;;;;;;;;;;4956534;29;20023;-85
2021/08/26 12:15:56;;;;;;;6.80;3.00;;;;;;;;;;4937984;29;20035;-83
2021/08/26 12:18:24;;;;;;;8.00;3.30;;;;;;;;;;4938777;29;20023;-82
2021/08/26 12:20:52;;;;;;;8.00;3.55;;;;;;;;;;4937890;29;20274;-81
2021/08/26 12:23:19;;;;;;;7.88;3.30;;;;;;;;;;4937928;29;20031;-83
2021/08/26 12:26:03;;;;;;;6.65;3.20;;;;;;;;;;4938013;29;20122;-83
2021/08/26 12:28:33;;;;;;;6.10;2.95;;;;;;;;;;4955027;28;20031;-83
2021/08/26 12:31:00;;;;;;;7.00;2.70;;;;;;;;;;4957464;29;20047;-83
2021/08/26 12:33:26;;;;;;;8.00;3.80;;;;;;;;;;4922884;29;20027;-83
2021/08/26 12:35:57;;;;;;;14.02;4.50;;;;;;;;;;4922841;29;20488;-85
2021/08/26 12:38:34;;;;;;;9.35;4.00;;;;;;;;;;4922161;29;20036;-79
2021/08/26 12:41:02;;;;;;;9.65;4.22;;;;;;;;;;4939237;29;20425;-83
2021/08/26 12:43:39;;;;;;;10.50;5.25;;;;;;;;;;4939238;29;20024;-78
2021/08/26 12:46:06;;;;;;;13.80;4.93;;;;;;;;;;4922090;29;20036;-77
2021/08/26 12:48:36;;;;;;;11.07;5.22;;;;;;;;;;4921777;29;20023;-79
2021/08/26 12:51:11;;;;;;;12.80;4.88;;;;;;;;;;4938939;29;20127;-77
2021/08/26 12:53:38;;;;;;;13.50;5.43;;;;;;;;;;4921790;29;20111;-78
2021/08/26 12:56:06;;;;;;;9.32;4.28;;;;;;;;;;4921889;29;20030;-78
2021/08/26 12:58:32;;;;;;;10.32;4.10;;;;;;;;;;4938839;29;20396;-80
2021/08/26 13:00:58;;;;;;;7.40;3.65;;;;;;;;;;4939262;29;20032;-79
2021/08/26 13:03:43;;;;;;;7.57;3.58;;;;;;;;;;4939070;29;20079;-79
2021/08/26 13:06:09;;;;;;;9.25;4.05;;;;;;;;;;4921715;29;20556;-79
2021/08/26 13:08:48;;;;;;;8.13;3.97;;;;;;;;;;4921571;29;20035;-78
2021/08/26 13:11:14;;;;;;;5.47;3.53;;;;;;;;;;4921675;29;20124;-79
2021/08/26 13:13:44;;;;;;;6.85;3.45;;;;;;;;;;4921653;29;20039;-80
2021/08/26 13:16:10;;;;;;;7.18;3.55;;;;;;;;;;4938766;29;20019;-80
2021/08/26 13:18:36;;;;;;;16.98;4.15;;;;;;;;;;4938552;29;20385;-79
2021/08/26 13:21:02;;;;;;;7.32;3.33;;;;;;;;;;4938541;29;20492;-79
2021/08/26 13:23:28;;;;;;;6.55;3.20;;;;;;;;;;4921489;29;20027;-81
2021/08/26 13:25:54;;;;;;;7.18;3.20;;;;;;;;;;4938378;29;20049;-78
2021/08/26 13:28:21;;;;;;;7.30;3.50;;;;;;;;;;4921271;29;20031;-80
2021/08/26 13:30:47;;;;;;;6.15;3.30;;;;;;;;;;4921266;29;20035;-79
2021/08/26 13:33:13;;;;;;;6.80;3.90;;;;;;;;;;4939211;29;20492;-78
2021/08/26 13:35:39;;;;;;;8.27;3.70;;;;;;;;;;4957476;29;20031;-80
2021/08/26 13:38:05;;;;;;;7.30;3.88;;;;;;;;;;4940192;29;20503;-79
2021/08/26 13:40:31;;;;;;;8.85;4.40;;;;;;;;;;4956944;28;20019;-82
2021/08/26 13:42:57;;;;;;;8.90;5.00;;;;;;;;;;4940019;29;20043;-82
2021/08/26 13:45:23;;;;;;;9.52;4.55;;;;;;;;;;4940056;29;20070;-80
2021/08/26 13:47:50;;;;;;;9.93;4.60;;;;;;;;;;4940179;29;20074;-84
2021/08/26 13:50:16;;;;;;;8.85;4.82;;;;;;;;;;4955654;29;20055;-82
2021/08/26 13:52:42;;;;;;;10.65;5.18;;;;;;;;;;4955980;29;20034;-83
2021/08/26 13:55:09;;;;;;;7.25;4.60;;;;;;;;;;4956901;29;20481;-81
2021/08/26 13:57:35;;;;;;;10.05;4.82;;;;;;;;;;4939971;29;20138;-80
2021/08/26 14:00:01;;;;;;;8.88;4.70;;;;;;;;;;4957236;29;20428;-83
2021/08/26 14:02:27;;;;;;;9.20;4.70;;;;;;;;;;4956915;29;20027;-82
2021/08/26 14:04:53;;;;;;;8.73;5.07;;;;;;;;;;4955818;29;20550;-82
2021/08/26 14:07:19;;;;;;;8.35;4.35;;;;;;;;;;4956979;29;20066;-82
2021/08/26 14:09:47;;;;;;;7.43;4.50;;;;;;;;;;4957026;29;20055;-82
2021/08/26 14:12:13;;;;;;;9.52;4.90;;;;;;;;;;4939582;29;20031;-82
2021/08/26 14:14:39;;;;;;;6.50;3.97;;;;;;;;;;4956995;29;20066;-83
2021/08/26 14:17:05;;;;;;;9.13;4.28;;;;;;;;;;4939689;29;20417;-82
2021/08/26 14:19:31;;;;;;;8.15;4.43;;;;;;;;;;4939703;29;20468;-82
2021/08/26 14:21:57;;;;;;;7.80;4.38;;;;;;;;;;4939448;29;20027;-83
2021/08/26 14:24:23;;;;;;;6.72;3.70;;;;;;;;;;4954349;29;20035;-79
2021/08/26 14:26:50;;;;;;;8.18;4.35;;;;;;;;;;4957033;29;20531;-77
2021/08/26 14:29:16;;;;;;;7.90;4.15;;;;;;;;;;4939573;29;20023;-85
2021/08/26 14:31:42;;;;;;;7.63;3.88;;;;;;;;;;4941481;29;20110;-81
2021/08/26 14:34:08;;;;;;;7.63;3.80;;;;;;;;;;4943043;29;20039;-85
2021/08/26 14:36:34;;;;;;;7.43;3.50;;;;;;;;;;4956496;29;20082;-78
2021/08/26 14:39:01;;;;;;;11.80;4.20;;;;;;;;;;4956385;29;20114;-78
2021/08/26 14:41:27;;;;;;;7.15;3.80;;;;;;;;;;4956472;29;20070;-85